Jacksonville International Airport
KJAX : rendu visible

Aérodrome :











RETROUVEZ-NOUS SUR...

 
LOGIN :

S'inscrire | Disclaimer

   EN    FR    IT 

 









Légende :    VFR   VFR Marginal   IFR   IFR Intensif   IFR Très Intensif
Visi : 
Plafond : 
>= 8 km
>= 3000ft
5 à 8 km
1000 à 3000 ft
1500m à 5 km
500 à 1000 ft
800 à 1500m
200 à 500 ft
< 800m
< 200 ft
Symboles :   Orages  Brouillard  Fortes neiges  Fortes précipitations  Vent > 20 kt






- Altitude de l'aérodrome : 30 ft
- Code IATA : JAX


KJAX - Jacksonville International

DERNIER METAR :
  • 250056Z 13003KT 10SM -TSRA FEW010 SCT031CB BKN090 BKN250 24/23 A2989 RMK AO2 PK WND 26029/0009 WSHFT 2347 LTG DSNT S AND SW RAB05 SLP120 OCNL LTGICCCCG VC S TS VC S MOV E P0090 T02440228 $

METARs EXPIRÉS :
  • 250038Z 12007KT 2SM TSRA FEW010 BKN035CB BKN070 BKN250 25/22 A2990 RMK AO2 PK WND 26029/0009 WSHFT 2347 LTG DSNT SE-SW RAB05 CONS LTGICCCCG OHD TS OHD MOV NE P0087 T02500217 $
  • 250008Z 25019G25KT 3/4SM TSRA SCT025 BKN050CB OVC250 27/22 A2990 RMK AO2 WSHFT 2347 LTG DSNT SE AND S RAB05 CONS LTGICCCCG OHD TS OHD MOV NE P0000 T02670222 RVRNO
  • 242356Z 18015G30KT 10SM TS FEW020 BKN050CB BKN250 31/23 A2989 RMK AO2 PK WND 17030/2352 LTG DSNT ALQDS PRESRR SLP123 CONS LTGICCCCG OHD TS OHD MOV NW T03060228 10372 20306 53014
  • 242256Z 13009KT 10SM TS FEW055CB SCT070 SCT120 BKN250 33/23 A2985 RMK AO2 LTG DSNT NW TSB54 SLP110 OCNL LTGICCC VC W TS VC W MOV NW T03280233
  • 242156Z 11007KT 10SM FEW040 SCT060 BKN150 OVC250 33/24 A2984 RMK AO2 SLP106 T03330244
  • 242056Z 10007KT 10SM SCT055 BKN130 OVC250 33/25 A2985 RMK AO2 SLP109 T03330250 56019

TAF KJAX
Valide du 25 à 00h jusqu'au 26 à 00h UTC


242334Z 2500/2524 18011KT P6SM VCTS SCT040CB BKN100 BKN200
TEMPO 2500/2502 VRB20G30KT 3SM TSRA BKN030CB OVC060
FM250300 21006KT P6SM VCSH SCT050 BKN100 BKN200
FM250700 24004KT P6SM SCT050 BKN150 BKN250
FM251900 12008KT P6SM VCTS SCT035CB SCT080 BKN250
PROB30 2519/2523 VRB20G30KT 3SM TSRA BKN030CB
FIR KZJX / Amérique du Nord



MET'MAP, la Météo Aéronautique d'un coup d'oeil ! - Copyright ORBIFLY Décembre 2007 - Disclaimer

ORBIFLY MET'MAP TEAM :

Programmation & Développement : Alexandra Zaïnal
Sur une idée originale de : Baudouin d'Aumeries
Soutien technique & logistique : Manuel Goepfert
Assistance : Marc-Olivier Méhu




SOURCES & CREDITS :

   NOAA       Earth
Advisory